Quick Links (Output Below):   Max & Min Temps   /   Climate Reports   /   Zone Forecasts
River Forecasts   /   Forestry Forecasts   /   Aviation Forecasts   /   Radars   /   Features

Terminal Aerodrome Forecast (Jonesboro)

Pick a Site:
Arkadelphia | El Dorado | Fayetteville | Fort Smith | Harrison | Highfill | Hot Springs | Jonesboro
Little Rock | Monticello | Mountain Home | Pine Bluff | Texarkana
 Forecast 

KJBR 241732Z 2418/2518 25015KT P6SM SKC
     FM250000 25006KT P6SM SKC
     FM251200 32007KT P6SM SKC=


 Latest METARs (Observations) 
How to Decode METARs
20Z KJBR 241953Z AUTO 26016G24KT 10SM CLR 13/M01 A2984 RMK AO2 SLP102
         T01281006
         
19Z KJBR 241853Z AUTO 27015G21KT 10SM CLR 12/00 A2984 RMK AO2 SLP102
         T01220000
         
18Z KJBR 241753Z AUTO 28015G22KT 10SM CLR 11/01 A2984 RMK AO2 PK WND
         25026/1742 SLP105 T01110006 10111 20072 50010
         
17Z KJBR 241653Z AUTO 26016G22KT 10SM CLR 10/01 A2985 RMK AO2 PK WND
         27026/1607 SLP108 T01000006
         
16Z KJBR 241553Z AUTO 27014G22KT 10SM CLR 09/01 A2985 RMK AO2 SLP105
         T00890006
         
15Z KJBR 241453Z AUTO 26014G20KT 10SM CLR 08/02 A2981 RMK AO2 SLP094
         T00830017 51043
         
14Z KJBR 241353Z AUTO 26013KT 10SM CLR 08/02 A2978 RMK AO2 SLP082
         T00780022 $
         
13Z KJBR 241253Z AUTO 26012KT 10SM CLR 07/02 A2974 RMK AO2 SLP069
         T00720022 $
         
12Z KJBR 241153Z AUTO 28013G25KT 10SM SCT032 08/02 A2969 RMK AO2 PK
         WND 28030/1124 SLP051 7//// T00780022 10161 20078 53071 $
         
11Z KJBR 241053Z AUTO 28014G22KT 10SM SCT028 09/05 A2961 RMK AO2 PK
         WND 29031/0955 PRESRR SLP025 T00890050 $
         
***** Today's Observations (Above) *****


Back to Main Page
http://www.srh.noaa.gov/lzk/qfcst.php

USA.gov is the U.S. government's official web portal to all federal, state and local government web resources and services.